createdAt,value
2023-05-06T00:01:00.581Z,6.52
2023-05-06T00:02:05.116Z,6.60
2023-05-06T00:03:09.472Z,6.64
2023-05-06T00:04:11.804Z,6.52
2023-05-06T00:05:15.496Z,6.52
2023-05-06T00:06:17.911Z,6.59
2023-05-06T00:07:21.019Z,6.51
2023-05-06T00:08:23.307Z,6.48
2023-05-06T00:09:27.664Z,6.54
2023-05-06T00:10:30.006Z,6.51
2023-05-06T00:11:32.658Z,6.52
2023-05-06T00:12:35.510Z,6.65
2023-05-06T00:13:38.178Z,6.63
2023-05-06T00:14:40.461Z,6.64
2023-05-06T00:15:42.767Z,6.70
2023-05-06T00:16:45.431Z,6.72
2023-05-06T00:17:47.767Z,6.76
2023-05-06T00:18:50.088Z,6.75
2023-05-06T00:19:52.521Z,6.74
2023-05-06T00:20:55.474Z,6.64
2023-05-06T00:21:58.616Z,6.64
2023-05-06T00:23:01.014Z,6.70
2023-05-06T00:24:03.619Z,6.62
2023-05-06T00:25:06.813Z,6.65
2023-05-06T00:26:10.331Z,6.66
2023-05-06T00:27:12.874Z,6.67
2023-05-06T00:28:15.309Z,6.65
2023-05-06T00:29:17.761Z,6.62
2023-05-06T00:30:20.203Z,6.54
2023-05-06T00:31:22.681Z,6.58
2023-05-06T00:32:25.079Z,6.53
2023-05-06T00:33:27.129Z,6.50
2023-05-06T00:34:29.627Z,6.55
2023-05-06T00:35:31.992Z,6.57
2023-05-06T00:36:35.822Z,6.60
2023-05-06T00:37:38.365Z,6.48
2023-05-06T00:38:40.699Z,6.49
2023-05-06T00:39:43.335Z,6.53
2023-05-06T00:40:46.425Z,6.55
2023-05-06T00:41:49.448Z,6.59
2023-05-06T00:42:51.704Z,6.51
2023-05-06T00:43:54.231Z,6.38
2023-05-06T00:44:56.566Z,6.30
2023-05-06T00:45:59.549Z,6.22
2023-05-06T00:47:02.271Z,6.23
2023-05-06T00:48:06.188Z,6.30
2023-05-06T00:49:09.137Z,6.38
2023-05-06T00:50:12.230Z,6.37
2023-05-06T00:51:15.049Z,6.45
2023-05-06T00:52:19.192Z,6.41
2023-05-06T00:53:23.436Z,6.39
2023-05-06T00:54:26.617Z,6.40
2023-05-06T00:55:30.487Z,6.45
2023-05-06T00:56:32.988Z,6.42
2023-05-06T00:57:35.815Z,6.32
2023-05-06T00:58:38.388Z,6.19
2023-05-06T00:59:40.720Z,6.28
2023-05-06T01:00:44.147Z,6.32
2023-05-06T01:01:46.799Z,6.05
2023-05-06T01:02:49.288Z,6.18
2023-05-06T01:03:54.827Z,6.21
2023-05-06T01:04:57.978Z,6.22
2023-05-06T01:06:16.404Z,6.27
2023-05-06T01:07:31.377Z,6.23
2023-05-06T01:08:46.366Z,6.21
2023-05-06T01:10:04.983Z,6.23
2023-05-06T01:11:26.065Z,6.23
2023-05-06T01:12:56.074Z,6.22
2023-05-06T01:14:02.065Z,6.13
2023-05-06T01:16:41.606Z,6.35
2023-05-06T01:17:46.676Z,6.23
2023-05-06T01:18:51.318Z,6.25
2023-05-06T01:19:57.778Z,6.27
2023-05-06T01:21:01.376Z,6.26
2023-05-06T01:22:06.605Z,6.13
2023-05-06T01:23:12.458Z,6.13
2023-05-06T01:24:14.948Z,6.20
2023-05-06T01:25:21.465Z,6.26
2023-05-06T01:26:25.770Z,6.23
2023-05-06T01:27:28.088Z,6.26
2023-05-06T01:28:30.306Z,6.18
2023-05-06T01:29:35.119Z,6.25
2023-05-06T01:30:59.252Z,6.28
2023-05-06T01:32:23.205Z,6.31
2023-05-06T01:33:41.381Z,6.22
2023-05-06T01:34:47.208Z,6.19
2023-05-06T01:35:59.584Z,6.26
2023-05-06T01:37:08.243Z,6.33
2023-05-06T01:38:31.787Z,6.34
2023-05-06T01:39:35.491Z,6.42
2023-05-06T01:40:41.402Z,6.43
2023-05-06T01:41:46.371Z,6.41
2023-05-06T01:42:50.217Z,6.36
2023-05-06T01:43:54.128Z,6.21
2023-05-06T01:44:58.465Z,6.27
2023-05-06T01:46:02.476Z,6.19
2023-05-06T01:47:08.380Z,6.21
2023-05-06T01:48:11.888Z,6.26
2023-05-06T01:49:16.667Z,5.85
2023-05-06T01:50:19.316Z,5.94
2023-05-06T01:51:22.002Z,5.87
2023-05-06T01:52:26.119Z,5.87
2023-05-06T01:53:29.132Z,5.78
2023-05-06T01:54:31.489Z,5.83
2023-05-06T01:55:34.429Z,5.86
2023-05-06T01:56:36.920Z,5.85
2023-05-06T01:57:39.394Z,5.77
2023-05-06T01:58:42.357Z,5.74
2023-05-06T01:59:44.803Z,5.73
2023-05-06T02:00:47.098Z,5.68
2023-05-06T02:01:49.842Z,5.63
2023-05-06T02:02:52.614Z,5.66
2023-05-06T02:03:55.818Z,5.58
2023-05-06T02:04:58.799Z,5.56
2023-05-06T02:06:01.217Z,5.63
2023-05-06T02:07:05.185Z,5.70
2023-05-06T02:08:07.550Z,5.55
2023-05-06T02:09:09.878Z,5.57
2023-05-06T02:10:14.260Z,5.60
2023-05-06T02:11:18.711Z,5.67
2023-05-06T02:12:22.168Z,5.72
2023-05-06T02:13:24.755Z,5.76
2023-05-06T02:14:28.306Z,5.82
2023-05-06T02:15:30.856Z,5.76
2023-05-06T02:16:33.535Z,5.63
2023-05-06T02:17:37.227Z,5.69
2023-05-06T02:18:40.889Z,5.71
2023-05-06T02:19:43.378Z,5.70
2023-05-06T02:20:45.792Z,5.78
2023-05-06T02:21:51.412Z,5.76
2023-05-06T02:22:53.832Z,5.81
2023-05-06T02:23:57.720Z,5.88
2023-05-06T02:25:01.003Z,5.98
2023-05-06T02:26:03.930Z,5.99
2023-05-06T02:27:06.348Z,5.98
2023-05-06T02:28:08.715Z,5.91
2023-05-06T02:29:11.043Z,5.84
2023-05-06T02:30:14.226Z,5.70
2023-05-06T02:31:16.882Z,5.67
2023-05-06T02:32:19.358Z,5.62
2023-05-06T02:33:22.312Z,5.56
2023-05-06T02:34:24.705Z,5.65
2023-05-06T02:35:27.634Z,5.63
2023-05-06T02:36:30.188Z,5.66
2023-05-06T02:37:32.981Z,5.70
2023-05-06T02:38:36.406Z,5.70
2023-05-06T02:39:38.830Z,5.66
2023-05-06T02:40:41.359Z,5.64
2023-05-06T02:41:43.663Z,5.57
2023-05-06T02:42:46.782Z,5.57
2023-05-06T02:43:49.243Z,5.56
2023-05-06T02:44:51.878Z,5.67
2023-05-06T02:45:54.679Z,5.64
2023-05-06T02:46:57.320Z,5.68
2023-05-06T02:48:00.822Z,5.71
2023-05-06T02:49:03.283Z,5.74
2023-05-06T02:50:06.510Z,5.71
2023-05-06T02:51:08.892Z,5.62
2023-05-06T02:52:11.143Z,5.52
2023-05-06T02:53:13.395Z,5.60
2023-05-06T02:54:15.663Z,5.65
2023-05-06T02:55:18.907Z,5.73
2023-05-06T02:56:21.394Z,5.69
2023-05-06T02:57:23.903Z,5.69
2023-05-06T02:58:26.242Z,5.75
2023-05-06T02:59:29.088Z,5.76
2023-05-06T03:00:31.537Z,5.76
2023-05-06T03:01:34.003Z,5.78
2023-05-06T03:02:36.604Z,5.84
2023-05-06T03:03:38.939Z,5.89
2023-05-06T03:04:41.390Z,5.95
2023-05-06T03:05:43.867Z,5.98
2023-05-06T03:06:46.104Z,6.08
2023-05-06T03:07:48.528Z,6.02
2023-05-06T03:08:50.927Z,6.04
2023-05-06T03:09:53.279Z,6.11
2023-05-06T03:10:56.430Z,6.12
2023-05-06T03:11:59.241Z,6.08
2023-05-06T03:13:02.013Z,6.08
2023-05-06T03:14:05.343Z,6.01
2023-05-06T03:15:08.950Z,6.01
2023-05-06T03:16:13.641Z,5.91
2023-05-06T03:17:17.677Z,5.86
2023-05-06T03:18:20.283Z,5.79
2023-05-06T03:19:22.671Z,5.84
2023-05-06T03:20:24.888Z,5.86
2023-05-06T03:21:29.444Z,5.80
2023-05-06T03:22:31.812Z,5.75
2023-05-06T03:23:34.081Z,5.84
2023-05-06T03:24:36.480Z,5.91
2023-05-06T03:25:39.856Z,5.94
2023-05-06T03:26:43.205Z,5.88
2023-05-06T03:27:46.765Z,5.83
2023-05-06T03:28:50.934Z,5.75
2023-05-06T03:29:55.282Z,5.79
2023-05-06T03:30:58.704Z,5.75
2023-05-06T03:32:04.729Z,5.73
2023-05-06T03:33:08.908Z,5.81
2023-05-06T03:34:11.427Z,5.82
2023-05-06T03:35:14.416Z,5.78
2023-05-06T03:36:17.899Z,5.76
2023-05-06T03:37:21.274Z,5.83
2023-05-06T03:38:25.540Z,5.83
2023-05-06T03:39:29.606Z,5.86
2023-05-06T03:40:33.504Z,5.98
2023-05-06T03:41:36.089Z,6.03
2023-05-06T03:42:39.999Z,6.04
2023-05-06T03:43:43.289Z,6.08
2023-05-06T03:44:47.190Z,6.07
2023-05-06T03:45:51.006Z,6.11
2023-05-06T03:46:53.833Z,6.13
2023-05-06T03:47:58.472Z,6.11
2023-05-06T03:49:02.288Z,6.17
2023-05-06T03:50:05.988Z,6.20
2023-05-06T03:51:08.936Z,6.29
2023-05-06T03:52:11.544Z,6.33
2023-05-06T03:53:15.917Z,6.35
2023-05-06T03:54:19.588Z,6.39
2023-05-06T03:55:22.658Z,6.31
2023-05-06T03:56:25.412Z,6.33
2023-05-06T03:57:28.913Z,6.40
2023-05-06T03:58:31.787Z,6.50
2023-05-06T03:59:34.857Z,6.49
2023-05-06T04:00:38.253Z,6.33
2023-05-06T04:01:41.412Z,6.31
2023-05-06T04:02:44.651Z,6.42
2023-05-06T04:03:48.885Z,6.46
2023-05-06T04:04:51.900Z,6.57
2023-05-06T04:05:54.259Z,6.59
2023-05-06T04:06:59.199Z,6.47
2023-05-06T04:08:01.522Z,6.37
2023-05-06T04:09:05.690Z,6.19
2023-05-06T04:10:09.490Z,6.11
2023-05-06T04:11:12.837Z,6.18
2023-05-06T04:12:15.185Z,6.26
2023-05-06T04:13:17.902Z,6.31
2023-05-06T04:14:22.101Z,6.26
2023-05-06T04:15:24.782Z,6.22
2023-05-06T04:16:27.422Z,6.27
2023-05-06T04:17:31.240Z,6.27
2023-05-06T04:18:33.856Z,6.26
2023-05-06T04:19:38.021Z,6.22
2023-05-06T04:20:41.051Z,6.16
2023-05-06T04:21:43.804Z,6.19
2023-05-06T04:22:47.098Z,6.17
2023-05-06T04:23:49.652Z,6.21
2023-05-06T04:24:53.651Z,6.21
2023-05-06T04:25:57.249Z,6.27
2023-05-06T04:27:02.084Z,6.18
2023-05-06T04:28:05.373Z,6.26
2023-05-06T04:29:08.732Z,6.25
2023-05-06T04:30:13.553Z,6.25
2023-05-06T04:31:16.407Z,6.23
2023-05-06T04:32:22.608Z,6.18
2023-05-06T04:33:25.160Z,6.16
2023-05-06T04:34:28.260Z,6.20
2023-05-06T04:35:31.793Z,6.26
2023-05-06T04:36:34.671Z,6.27
2023-05-06T04:37:54.159Z,6.34
2023-05-06T04:38:58.430Z,6.39
2023-05-06T04:40:02.421Z,6.44
2023-05-06T04:41:05.513Z,6.42
2023-05-06T04:42:08.459Z,6.34
2023-05-06T04:43:12.768Z,6.37
2023-05-06T04:44:16.678Z,6.37
2023-05-06T04:45:21.167Z,6.28
2023-05-06T04:46:24.824Z,6.20
2023-05-06T04:47:27.920Z,6.29
2023-05-06T04:48:30.987Z,6.33
2023-05-06T04:49:33.893Z,6.32
2023-05-06T04:50:36.727Z,6.32
2023-05-06T04:51:38.982Z,6.31
2023-05-06T04:52:41.517Z,6.37
2023-05-06T04:53:43.832Z,6.30
2023-05-06T04:54:46.548Z,6.32
2023-05-06T04:55:48.973Z,6.32
2023-05-06T04:56:51.688Z,6.28
2023-05-06T04:57:55.333Z,6.26
2023-05-06T04:58:57.786Z,6.28
2023-05-06T05:00:00.685Z,6.31
2023-05-06T05:01:09.342Z,6.34
2023-05-06T05:02:11.917Z,6.38
2023-05-06T05:03:15.241Z,6.44
2023-05-06T05:04:17.996Z,6.43
2023-05-06T05:05:20.506Z,6.48
2023-05-06T05:06:24.701Z,6.51
2023-05-06T05:07:28.277Z,6.55
2023-05-06T05:08:30.594Z,6.64
2023-05-06T05:09:34.032Z,6.67
2023-05-06T05:10:37.392Z,6.64
2023-05-06T05:11:40.075Z,6.59
2023-05-06T05:12:42.341Z,6.58
2023-05-06T05:13:44.839Z,6.55
2023-05-06T05:14:47.695Z,6.62
2023-05-06T05:15:55.318Z,6.70
2023-05-06T05:16:59.198Z,6.73
2023-05-06T05:18:01.781Z,6.80
2023-05-06T05:19:04.923Z,6.82
2023-05-06T05:20:10.073Z,6.83
2023-05-06T05:21:13.209Z,6.81
2023-05-06T05:22:16.084Z,6.86
2023-05-06T05:23:19.602Z,6.94
2023-05-06T05:24:22.571Z,7.00
2023-05-06T05:25:25.278Z,6.94
2023-05-06T05:26:28.177Z,6.84
2023-05-06T05:27:30.477Z,6.93
2023-05-06T05:28:33.046Z,6.97
2023-05-06T05:29:37.548Z,6.96
2023-05-06T05:30:41.401Z,6.91
2023-05-06T05:31:45.045Z,6.96
2023-05-06T05:32:48.160Z,7.01
2023-05-06T05:33:52.134Z,7.04
2023-05-06T05:34:56.684Z,7.03
2023-05-06T05:36:00.211Z,7.11
2023-05-06T05:37:04.001Z,7.14
2023-05-06T05:38:08.197Z,7.21
2023-05-06T05:39:10.971Z,7.18
2023-05-06T05:40:17.050Z,7.22
2023-05-06T05:41:19.932Z,7.29
2023-05-06T05:42:23.019Z,7.33
2023-05-06T05:43:27.117Z,7.36
2023-05-06T05:44:30.458Z,7.43
2023-05-06T05:45:33.840Z,7.43
2023-05-06T05:46:36.989Z,7.46
2023-05-06T05:47:39.757Z,7.49
2023-05-06T05:48:42.737Z,7.59
2023-05-06T05:49:46.537Z,7.62
2023-05-06T05:50:49.167Z,7.67
2023-05-06T05:51:52.530Z,7.71
2023-05-06T05:52:55.723Z,7.75
2023-05-06T05:53:58.561Z,7.81
2023-05-06T05:55:01.173Z,7.83
2023-05-06T05:56:04.846Z,7.95
2023-05-06T05:57:07.295Z,7.95
2023-05-06T05:58:14.333Z,7.98
2023-05-06T05:59:18.511Z,7.93
2023-05-06T06:00:22.370Z,7.88
2023-05-06T06:01:26.851Z,7.93
2023-05-06T06:02:29.833Z,7.95
2023-05-06T06:03:33.213Z,7.95
2023-05-06T06:04:36.406Z,8.00
2023-05-06T06:05:40.375Z,7.99
2023-05-06T06:06:43.481Z,7.99
2023-05-06T06:07:46.661Z,7.94
2023-05-06T06:08:49.526Z,7.94
2023-05-06T06:09:52.412Z,7.96
2023-05-06T06:10:56.648Z,8.00
2023-05-06T06:12:01.510Z,8.08
2023-05-06T06:13:05.969Z,8.14
2023-05-06T06:14:08.734Z,8.14
2023-05-06T06:15:11.746Z,8.18
2023-05-06T06:16:16.374Z,8.18
2023-05-06T06:17:18.952Z,8.29
2023-05-06T06:18:21.768Z,8.28
2023-05-06T06:19:27.953Z,8.35
2023-05-06T06:20:32.197Z,8.47
2023-05-06T06:21:34.925Z,8.51
2023-05-06T06:22:37.401Z,8.44
2023-05-06T06:23:40.974Z,8.43
2023-05-06T06:24:44.009Z,8.43
2023-05-06T06:25:47.544Z,8.47
2023-05-06T06:26:49.829Z,8.51
2023-05-06T06:27:56.244Z,8.56
2023-05-06T06:28:58.986Z,8.72
2023-05-06T06:30:02.090Z,8.66
2023-05-06T06:31:05.191Z,8.66
2023-05-06T06:32:09.902Z,8.65
2023-05-06T06:33:13.785Z,8.63
2023-05-06T06:34:16.587Z,8.61
2023-05-06T06:35:20.028Z,8.61
2023-05-06T06:36:22.960Z,8.65
2023-05-06T06:37:27.155Z,8.68
2023-05-06T06:38:29.788Z,8.56
2023-05-06T06:39:33.209Z,8.79
2023-05-06T06:40:39.369Z,8.85
2023-05-06T06:41:42.329Z,9.02
2023-05-06T06:42:46.973Z,9.00
2023-05-06T06:44:08.087Z,8.84
2023-05-06T06:45:12.918Z,8.94
2023-05-06T06:46:16.362Z,9.01
2023-05-06T06:47:18.776Z,8.87
2023-05-06T06:48:22.726Z,8.92
2023-05-06T06:49:25.904Z,9.11
2023-05-06T06:50:29.017Z,9.05
2023-05-06T06:51:31.792Z,9.13
2023-05-06T06:52:35.396Z,9.22
2023-05-06T06:53:39.162Z,9.14
2023-05-06T06:54:42.320Z,9.03
2023-05-06T06:55:47.346Z,8.95
2023-05-06T06:56:51.405Z,9.04
2023-05-06T06:57:53.692Z,9.09
2023-05-06T06:58:56.518Z,9.28
2023-05-06T06:59:59.031Z,9.37
2023-05-06T07:01:01.177Z,9.31
2023-05-06T07:02:03.581Z,9.40
2023-05-06T07:03:05.738Z,9.30
2023-05-06T07:04:08.934Z,9.31
2023-05-06T07:05:12.777Z,9.63
2023-05-06T07:06:16.497Z,9.70
2023-05-06T07:07:18.773Z,9.51
2023-05-06T07:08:22.782Z,9.57
2023-05-06T07:09:26.151Z,9.64
2023-05-06T07:10:29.647Z,9.68
2023-05-06T07:11:32.103Z,9.68
2023-05-06T07:12:35.593Z,9.64
2023-05-06T07:13:39.091Z,9.63
2023-05-06T07:14:42.464Z,9.63
2023-05-06T07:15:45.232Z,9.58
2023-05-06T07:16:49.988Z,9.55
2023-05-06T07:17:52.337Z,9.46
2023-05-06T07:18:55.898Z,9.48
2023-05-06T07:19:58.161Z,9.43
2023-05-06T07:21:01.739Z,9.47
2023-05-06T07:22:05.270Z,9.51
2023-05-06T07:23:07.792Z,9.53
2023-05-06T07:24:10.259Z,9.51
2023-05-06T07:25:12.793Z,9.56
2023-05-06T07:26:15.991Z,9.52
2023-05-06T07:27:18.302Z,9.55
2023-05-06T07:28:20.625Z,9.55
2023-05-06T07:29:23.235Z,9.56
2023-05-06T07:30:25.882Z,9.46
2023-05-06T07:31:29.950Z,9.50
2023-05-06T07:32:32.956Z,9.59
2023-05-06T07:33:35.245Z,9.66
2023-05-06T07:34:38.378Z,9.73
2023-05-06T07:35:41.123Z,9.72
2023-05-06T07:36:44.451Z,9.69
2023-05-06T07:37:47.121Z,9.66
2023-05-06T07:38:50.510Z,9.70
2023-05-06T07:39:53.895Z,9.70
2023-05-06T07:40:56.474Z,9.81
2023-05-06T07:41:59.541Z,9.83
2023-05-06T07:43:04.117Z,9.86
2023-05-06T07:44:06.910Z,9.88
2023-05-06T07:45:11.192Z,9.92
2023-05-06T07:46:14.446Z,9.85
2023-05-06T07:47:29.094Z,9.87
2023-05-06T07:48:35.886Z,9.86
2023-05-06T07:49:38.767Z,9.89
2023-05-06T07:50:41.327Z,9.92
2023-05-06T07:51:43.925Z,10.01
2023-05-06T07:52:47.257Z,10.07
2023-05-06T07:53:50.341Z,10.16
2023-05-06T07:54:53.270Z,10.26
2023-05-06T07:55:59.285Z,10.29
2023-05-06T07:57:02.270Z,10.32
2023-05-06T07:58:05.569Z,10.30
2023-05-06T07:59:07.880Z,10.32
2023-05-06T08:00:12.218Z,10.31
2023-05-06T08:01:20.984Z,10.33
2023-05-06T08:02:23.712Z,10.37
2023-05-06T08:03:27.404Z,10.43
2023-05-06T08:04:30.196Z,10.29
2023-05-06T08:05:32.719Z,10.32
2023-05-06T08:06:34.948Z,10.31
2023-05-06T08:07:37.668Z,10.37
2023-05-06T08:08:40.088Z,10.36
2023-05-06T08:09:42.410Z,10.32
2023-05-06T08:10:45.256Z,10.29
2023-05-06T08:11:49.173Z,10.34
2023-05-06T08:12:53.095Z,10.31
2023-05-06T08:13:55.685Z,10.28
2023-05-06T08:14:58.859Z,10.24
2023-05-06T08:16:02.701Z,10.27
2023-05-06T08:17:05.127Z,10.26
2023-05-06T08:18:20.955Z,10.31
2023-05-06T08:19:11.370Z,10.33
2023-05-06T08:20:14.964Z,10.37
2023-05-06T08:21:17.212Z,10.43
2023-05-06T08:22:19.234Z,10.42
2023-05-06T08:23:21.239Z,10.45
2023-05-06T08:24:23.546Z,10.55
2023-05-06T08:25:25.871Z,10.67
2023-05-06T08:26:28.350Z,10.67
2023-05-06T08:27:31.027Z,10.78
2023-05-06T08:28:33.373Z,10.81
2023-05-06T08:29:35.586Z,11.03
2023-05-06T08:30:38.013Z,11.05
2023-05-06T08:31:40.477Z,11.01
2023-05-06T08:32:43.283Z,10.89
2023-05-06T08:33:45.886Z,10.69
2023-05-06T08:34:48.225Z,10.62
2023-05-06T08:35:51.121Z,10.57
2023-05-06T08:36:53.573Z,10.75
2023-05-06T08:37:56.117Z,10.73
2023-05-06T08:38:59.311Z,10.80
2023-05-06T08:40:02.597Z,10.76
2023-05-06T08:41:12.429Z,10.77
2023-05-06T08:42:14.778Z,10.83
2023-05-06T08:43:20.731Z,10.87
2023-05-06T08:44:24.097Z,10.77
2023-05-06T08:45:28.685Z,10.82
2023-05-06T08:46:31.352Z,10.87
2023-05-06T08:47:34.298Z,10.87
2023-05-06T08:48:37.864Z,10.98
2023-05-06T08:49:40.218Z,11.07
2023-05-06T08:50:43.195Z,11.10
2023-05-06T08:51:47.109Z,11.01
2023-05-06T08:52:50.692Z,11.05
2023-05-06T08:53:54.656Z,11.02
2023-05-06T08:55:00.311Z,10.81
2023-05-06T08:56:05.816Z,10.89
2023-05-06T08:57:12.526Z,10.78
2023-05-06T08:58:17.596Z,10.91
2023-05-06T08:59:23.395Z,10.94
2023-05-06T09:00:26.758Z,11.05
2023-05-06T09:01:29.261Z,11.14
2023-05-06T09:02:32.817Z,11.11
2023-05-06T09:03:35.326Z,11.31
2023-05-06T09:04:38.167Z,11.28
2023-05-06T09:05:40.567Z,11.28
2023-05-06T09:06:42.969Z,11.26
2023-05-06T09:07:45.878Z,11.33
2023-05-06T09:08:47.992Z,11.29
2023-05-06T09:09:51.734Z,11.37
2023-05-06T09:10:54.119Z,11.23
2023-05-06T09:11:57.921Z,11.11
2023-05-06T09:13:00.495Z,11.08
2023-05-06T09:14:15.154Z,11.35
2023-05-06T09:15:17.533Z,11.42
2023-05-06T09:16:30.291Z,11.47
2023-05-06T09:17:32.919Z,11.41
2023-05-06T09:18:36.759Z,11.43
2023-05-06T09:19:39.838Z,11.43
2023-05-06T09:20:44.772Z,11.47
2023-05-06T09:21:49.735Z,11.47
2023-05-06T09:22:55.473Z,11.52
2023-05-06T09:23:58.505Z,11.41
2023-05-06T09:25:01.024Z,11.26
2023-05-06T09:26:03.712Z,11.13
2023-05-06T09:27:08.418Z,11.23
2023-05-06T09:28:13.871Z,11.38
2023-05-06T09:29:16.259Z,11.54
2023-05-06T09:30:20.014Z,11.60
2023-05-06T09:31:23.488Z,11.70
2023-05-06T09:32:26.353Z,11.77
2023-05-06T09:33:29.903Z,11.74
2023-05-06T09:34:32.894Z,11.71
2023-05-06T09:35:40.167Z,11.67
2023-05-06T09:36:42.456Z,11.66
2023-05-06T09:37:44.736Z,11.75
2023-05-06T09:38:47.302Z,11.76
2023-05-06T09:39:53.589Z,11.70
2023-05-06T09:40:56.524Z,11.42
2023-05-06T09:41:59.471Z,11.46
2023-05-06T09:43:03.411Z,11.51
2023-05-06T09:44:05.842Z,11.67
2023-05-06T09:45:10.405Z,11.67
2023-05-06T09:46:13.970Z,11.31
2023-05-06T09:47:16.588Z,11.25
2023-05-06T09:48:19.194Z,11.39
2023-05-06T09:49:21.845Z,11.48
2023-05-06T09:50:25.958Z,11.48
2023-05-06T09:51:30.498Z,11.57
2023-05-06T09:52:33.399Z,11.65
2023-05-06T09:53:37.255Z,11.77
2023-05-06T09:54:41.706Z,11.83
2023-05-06T09:55:45.374Z,11.77
2023-05-06T09:56:48.447Z,11.89
2023-05-06T09:57:51.519Z,11.94
2023-05-06T09:58:55.861Z,11.97
2023-05-06T10:00:00.180Z,11.97
2023-05-06T10:01:06.248Z,11.98
2023-05-06T10:02:10.782Z,12.09
2023-05-06T10:03:18.030Z,12.23
2023-05-06T10:04:26.248Z,12.23
2023-05-06T10:05:30.559Z,12.27
2023-05-06T10:06:35.073Z,12.35
2023-05-06T10:07:39.497Z,12.27
2023-05-06T10:08:45.455Z,12.26
2023-05-06T10:09:50.701Z,12.26
2023-05-06T10:10:53.253Z,12.23
2023-05-06T10:11:55.670Z,12.34
2023-05-06T10:12:58.111Z,12.40
2023-05-06T10:14:01.361Z,12.42
2023-05-06T10:15:05.839Z,12.41
2023-05-06T10:16:11.155Z,12.45
2023-05-06T10:17:15.444Z,12.53
2023-05-06T10:18:20.135Z,12.44
2023-05-06T10:19:26.053Z,12.47
2023-05-06T10:20:33.517Z,12.57
2023-05-06T10:21:38.539Z,12.48
2023-05-06T10:23:02.758Z,12.54
2023-05-06T10:24:08.507Z,12.54
2023-05-06T10:25:30.305Z,12.50
2023-05-06T10:26:36.445Z,12.45
2023-05-06T10:27:42.215Z,12.55
2023-05-06T10:28:49.569Z,12.72
2023-05-06T10:29:55.387Z,12.62
2023-05-06T10:30:59.323Z,12.73
2023-05-06T10:32:03.615Z,12.73
2023-05-06T10:33:11.205Z,12.87
2023-05-06T10:34:16.526Z,12.89
2023-05-06T10:35:42.250Z,12.79
2023-05-06T10:36:48.001Z,12.68
2023-05-06T10:37:52.425Z,12.73
2023-05-06T10:38:57.518Z,12.70
2023-05-06T10:40:02.263Z,12.78
2023-05-06T10:41:06.592Z,12.78
2023-05-06T10:42:10.781Z,12.80
2023-05-06T10:43:22.258Z,12.92
2023-05-06T10:44:46.126Z,12.99
2023-05-06T10:46:08.391Z,13.01
2023-05-06T10:47:11.127Z,13.12
2023-05-06T10:48:14.495Z,13.06
2023-05-06T10:49:17.746Z,13.12
2023-05-06T10:50:24.770Z,13.13
2023-05-06T10:51:28.121Z,13.18
2023-05-06T10:52:46.663Z,13.27
2023-05-06T10:54:04.087Z,13.32
2023-05-06T10:55:10.990Z,13.34
2023-05-06T10:56:14.956Z,13.34
2023-05-06T10:57:17.650Z,13.49
2023-05-06T10:58:20.566Z,13.65
2023-05-06T10:59:30.077Z,13.70
2023-05-06T11:00:34.077Z,13.75
2023-05-06T11:01:43.015Z,13.87
2023-05-06T11:02:47.467Z,13.77
2023-05-06T11:03:51.189Z,13.63
2023-05-06T11:04:57.053Z,13.63
2023-05-06T11:05:59.372Z,13.84
2023-05-06T11:07:11.069Z,13.98
2023-05-06T11:08:14.571Z,14.09
2023-05-06T11:09:23.348Z,14.11
2023-05-06T11:10:33.999Z,14.17
2023-05-06T11:12:02.903Z,14.33
2023-05-06T11:13:27.066Z,14.33
2023-05-06T11:14:34.861Z,14.32
2023-05-06T11:15:39.850Z,14.42
2023-05-06T11:16:50.627Z,14.41
2023-05-06T11:17:55.694Z,14.48
2023-05-06T11:18:58.543Z,14.41
2023-05-06T11:20:22.223Z,14.30
2023-05-06T11:21:34.477Z,14.26
2023-05-06T11:22:43.110Z,14.32
2023-05-06T11:23:48.913Z,14.31
2023-05-06T11:24:51.139Z,14.30
2023-05-06T11:25:56.820Z,14.49
2023-05-06T11:27:00.655Z,14.61
2023-05-06T11:28:07.504Z,14.53
2023-05-06T11:29:09.996Z,14.66
2023-05-06T11:30:15.317Z,14.69
2023-05-06T11:31:18.592Z,14.58
2023-05-06T11:32:24.571Z,14.60
2023-05-06T11:33:29.759Z,14.84
2023-05-06T11:34:34.774Z,14.47
2023-05-06T11:35:37.726Z,14.62
2023-05-06T11:37:03.961Z,14.64
2023-05-06T11:38:06.305Z,14.91
2023-05-06T11:39:08.868Z,15.18
2023-05-06T11:40:15.426Z,15.36
2023-05-06T11:41:19.135Z,15.54
2023-05-06T11:42:27.033Z,15.67
2023-05-06T11:43:29.729Z,15.80
2023-05-06T11:44:35.737Z,15.92
2023-05-06T11:45:44.299Z,15.89
2023-05-06T11:46:49.925Z,16.00
2023-05-06T11:47:54.601Z,15.97
2023-05-06T11:48:57.003Z,15.94
2023-05-06T11:50:01.337Z,15.93
2023-05-06T11:51:03.783Z,15.86
2023-05-06T11:52:07.201Z,15.77
2023-05-06T11:53:09.380Z,15.69
2023-05-06T11:54:11.715Z,15.74
2023-05-06T11:55:14.705Z,16.01
2023-05-06T11:56:17.085Z,16.13
2023-05-06T11:57:20.343Z,15.87
2023-05-06T11:58:29.193Z,15.73
2023-05-06T11:59:38.282Z,15.77
2023-05-06T12:00:51.173Z,15.73
2023-05-06T12:01:53.829Z,15.68
2023-05-06T12:02:57.550Z,15.69
2023-05-06T12:04:02.025Z,15.83
2023-05-06T12:05:05.968Z,16.10
2023-05-06T12:06:09.310Z,15.92
2023-05-06T12:07:14.267Z,16.08
2023-05-06T12:08:28.076Z,16.02
2023-05-06T12:09:29.402Z,16.11
2023-05-06T12:10:33.400Z,16.22
2023-05-06T12:11:37.352Z,16.36
2023-05-06T12:12:40.987Z,16.59
2023-05-06T12:13:44.060Z,16.66
2023-05-06T12:14:47.554Z,16.78
2023-05-06T12:15:50.889Z,16.93
2023-05-06T12:16:55.993Z,16.93
2023-05-06T12:17:57.865Z,17.02
2023-05-06T12:19:02.238Z,17.17
2023-05-06T12:20:05.754Z,17.34
2023-05-06T12:21:08.254Z,17.43
2023-05-06T12:22:21.718Z,17.38
2023-05-06T12:23:23.944Z,17.48
2023-05-06T12:24:30.055Z,17.55
2023-05-06T12:25:33.079Z,17.50
2023-05-06T12:26:50.493Z,17.42
2023-05-06T12:27:53.472Z,17.36
2023-05-06T12:30:37.250Z,16.99
2023-05-06T12:31:39.817Z,16.65
2023-05-06T12:33:01.632Z,16.68
2023-05-06T12:34:04.505Z,16.67
2023-05-06T12:35:08.978Z,16.73
2023-05-06T12:36:12.765Z,16.67
2023-05-06T12:37:26.687Z,16.77
2023-05-06T12:38:31.463Z,17.04
2023-05-06T12:39:38.866Z,17.20
2023-05-06T12:40:43.063Z,17.37
2023-05-06T12:41:46.958Z,17.60
2023-05-06T12:42:55.689Z,17.78
2023-05-06T12:43:57.944Z,17.82
2023-05-06T12:45:03.801Z,17.86
2023-05-06T12:46:08.211Z,17.99
2023-05-06T12:47:25.339Z,18.14
2023-05-06T12:48:28.397Z,18.24
2023-05-06T12:49:48.733Z,18.18
2023-05-06T12:50:52.306Z,18.06
2023-05-06T12:52:06.506Z,18.06
2023-05-06T12:53:13.600Z,18.18
2023-05-06T12:54:31.377Z,18.10
2023-05-06T12:55:36.701Z,17.91
2023-05-06T12:56:39.047Z,17.89
2023-05-06T12:57:41.546Z,18.17
2023-05-06T12:58:45.270Z,18.43
2023-05-06T12:59:48.635Z,18.50
2023-05-06T13:00:51.987Z,18.09
2023-05-06T13:01:54.993Z,18.15
2023-05-06T13:02:58.357Z,18.45
2023-05-06T13:04:00.887Z,18.57
2023-05-06T13:05:03.816Z,18.67
2023-05-06T13:06:07.429Z,18.22
2023-05-06T13:07:10.280Z,17.82
2023-05-06T13:08:13.605Z,17.55
2023-05-06T13:09:16.044Z,17.70
2023-05-06T13:10:18.596Z,18.01
2023-05-06T13:11:21.502Z,18.36
2023-05-06T13:12:23.896Z,18.70
2023-05-06T13:13:26.662Z,19.09
2023-05-06T13:14:29.824Z,19.40
2023-05-06T13:15:33.921Z,19.63
2023-05-06T13:16:38.889Z,19.85
2023-05-06T13:17:41.228Z,19.73
2023-05-06T13:18:43.612Z,19.73
2023-05-06T13:19:46.549Z,19.76
2023-05-06T13:20:50.224Z,19.93
2023-05-06T13:21:52.545Z,20.06
2023-05-06T13:22:55.892Z,20.15
2023-05-06T13:23:58.962Z,20.03
2023-05-06T13:25:01.293Z,20.07
2023-05-06T13:26:05.753Z,20.24
2023-05-06T13:27:08.624Z,20.09
2023-05-06T13:28:10.607Z,19.83
2023-05-06T13:29:13.611Z,19.87
2023-05-06T13:30:16.505Z,19.95
2023-05-06T13:31:19.430Z,20.22
2023-05-06T13:32:21.754Z,20.38
2023-05-06T13:33:24.534Z,20.47
2023-05-06T13:34:26.853Z,20.37
2023-05-06T13:35:29.994Z,20.43
2023-05-06T13:36:32.365Z,20.64
2023-05-06T13:37:34.599Z,20.24
2023-05-06T13:38:37.774Z,19.92
2023-05-06T13:39:40.250Z,19.86
2023-05-06T13:40:46.350Z,19.02
2023-05-06T13:41:49.633Z,18.66
2023-05-06T13:42:51.602Z,18.67
2023-05-06T13:43:54.399Z,18.95
2023-05-06T13:44:56.682Z,19.31
2023-05-06T13:45:59.056Z,19.70
2023-05-06T13:47:01.673Z,20.00
2023-05-06T13:48:04.049Z,20.23
2023-05-06T13:49:07.446Z,20.25
2023-05-06T13:50:11.303Z,20.38
2023-05-06T13:51:13.792Z,20.56
2023-05-06T13:52:16.029Z,20.74
2023-05-06T13:53:18.159Z,20.69
2023-05-06T13:54:20.592Z,20.87
2023-05-06T13:55:22.619Z,20.97
2023-05-06T13:56:25.177Z,21.15
2023-05-06T13:57:27.093Z,21.21
2023-05-06T13:58:29.235Z,21.31
2023-05-06T13:59:32.500Z,21.45
2023-05-06T14:00:36.395Z,21.85
2023-05-06T14:01:39.046Z,21.93
2023-05-06T14:02:42.425Z,22.14
2023-05-06T14:03:45.727Z,22.45
2023-05-06T14:04:48.122Z,22.71
2023-05-06T14:05:53.282Z,22.95
2023-05-06T14:06:55.840Z,23.22